Time;durP1;ratioP1;P1;durP2;ratioP2;P2;SDS_P1;SDS_P2;PMS_P1;PMS_P2;Temp;Humidity;BMP_temperature;BMP_pressure;BME280_temperature;BME280_humidity;BME280_pressure;Samples;Min_cycle;Max_cycle;Signal;HPM_P1;HPM_P2
2021/10/08 00:00:10;;;;;;;2.67;1.08;;;22.50;54.20;;;;;;4956422;28;20119;-53
2021/10/08 00:02:35;;;;;;;1.65;0.90;;;22.50;54.20;;;;;;4976728;28;20081;-54
2021/10/08 00:05:01;;;;;;;1.60;0.80;;;22.50;54.20;;;;;;4972341;28;20071;-54
2021/10/08 00:07:27;;;;;;;2.13;1.10;;;22.40;54.20;;;;;;4965359;28;20114;-54
2021/10/08 00:09:52;;;;;;;1.30;0.80;;;22.40;54.20;;;;;;4973540;28;20042;-50
2021/10/08 00:12:18;;;;;;;2.35;0.85;;;22.40;54.30;;;;;;4960704;28;20145;-54
2021/10/08 00:14:44;;;;;;;1.45;0.90;;;22.40;54.30;;;;;;4968968;28;20105;-50
2021/10/08 00:17:10;;;;;;;1.75;0.88;;;22.40;54.30;;;;;;4967256;28;20126;-53
2021/10/08 00:19:37;;;;;;;2.10;0.90;;;22.40;54.30;;;;;;4974716;28;20041;-53
2021/10/08 00:22:02;;;;;;;2.17;1.00;;;22.40;54.30;;;;;;4971219;28;20149;-55
2021/10/08 00:24:28;;;;;;;2.38;0.85;;;22.40;54.30;;;;;;4977627;28;20133;-59
2021/10/08 00:26:53;;;;;;;2.13;0.90;;;22.40;54.30;;;;;;4971026;28;20031;-59
2021/10/08 00:29:19;;;;;;;2.97;1.00;;;22.40;54.30;;;;;;4970045;28;20030;-48
2021/10/08 00:31:45;;;;;;;1.60;0.80;;;22.30;54.30;;;;;;4966668;28;20039;-53
2021/10/08 00:34:10;;;;;;;1.98;1.00;;;22.30;54.30;;;;;;4967310;28;20026;-55
2021/10/08 00:36:36;;;;;;;2.33;0.95;;;22.30;54.30;;;;;;4965780;28;20035;-59
2021/10/08 00:39:03;;;;;;;2.17;0.80;;;22.30;54.30;;;;;;4975113;28;20027;-49
2021/10/08 00:41:29;;;;;;;1.27;0.85;;;22.30;54.40;;;;;;4972983;28;20526;-59
2021/10/08 00:43:55;;;;;;;1.73;0.75;;;22.30;54.40;;;;;;4961810;28;20134;-49
2021/10/08 00:46:21;;;;;;;1.58;0.80;;;22.30;54.40;;;;;;4965994;28;20607;-55
2021/10/08 00:48:51;;;;;;;2.35;0.88;;;22.30;54.50;;;;;;4968960;28;20117;-59
2021/10/08 00:51:18;;;;;;;1.23;0.80;;;22.30;54.40;;;;;;4965275;28;20336;-52
2021/10/08 00:53:43;;;;;;;2.10;0.90;;;22.30;54.50;;;;;;4959268;28;20031;-52
2021/10/08 00:56:09;;;;;;;1.38;0.70;;;22.20;54.40;;;;;;4965072;28;20703;-56
2021/10/08 00:58:35;;;;;;;1.58;0.90;;;22.20;54.40;;;;;;4963173;28;20053;-46
2021/10/08 01:01:01;;;;;;;2.58;1.00;;;22.20;54.40;;;;;;4962395;28;20062;-47
2021/10/08 01:03:27;;;;;;;1.60;0.90;;;22.20;54.50;;;;;;4977160;28;20038;-52
2021/10/08 01:05:52;;;;;;;1.25;0.80;;;22.20;54.50;;;;;;4962356;28;20093;-51
2021/10/08 01:08:18;;;;;;;1.60;0.80;;;22.20;54.50;;;;;;4966352;28;20037;-54
2021/10/08 01:10:45;;;;;;;2.08;0.90;;;22.20;54.50;;;;;;4954166;28;20114;-51
2021/10/08 01:13:11;;;;;;;1.80;0.90;;;22.20;54.50;;;;;;4970508;28;20050;-52
2021/10/08 01:15:37;;;;;;;2.45;0.90;;;22.20;54.50;;;;;;4965147;28;20023;-52
2021/10/08 01:18:03;;;;;;;1.63;0.85;;;22.20;54.50;;;;;;4968511;28;20023;-54
2021/10/08 01:20:29;;;;;;;2.00;1.00;;;22.20;54.50;;;;;;4956287;28;20039;-55
2021/10/08 01:22:58;;;;;;;2.08;0.90;;;22.20;54.50;;;;;;4964747;28;20042;-51
2021/10/08 01:25:26;;;;;;;1.80;0.90;;;22.10;54.50;;;;;;4970199;28;20371;-53
2021/10/08 01:27:52;;;;;;;1.88;0.88;;;22.20;54.60;;;;;;4972637;28;20034;-58
2021/10/08 01:30:18;;;;;;;1.45;0.90;;;22.10;54.50;;;;;;4964543;28;20019;-52
2021/10/08 01:32:45;;;;;;;1.83;0.90;;;22.10;54.50;;;;;;4959373;28;20027;-53
2021/10/08 01:35:10;;;;;;;1.25;0.80;;;22.10;54.50;;;;;;4964492;28;20058;-50
2021/10/08 01:37:36;;;;;;;1.05;0.70;;;22.10;54.50;;;;;;4970010;28;20070;-53
2021/10/08 01:40:03;;;;;;;1.38;0.90;;;22.10;54.60;;;;;;4969414;28;20114;-52
2021/10/08 01:42:30;;;;;;;1.48;0.80;;;22.10;54.60;;;;;;4968264;28;20462;-53
2021/10/08 01:44:56;;;;;;;2.35;0.90;;;22.10;54.60;;;;;;4974378;28;20057;-57
2021/10/08 01:47:21;;;;;;;1.35;0.82;;;22.10;54.60;;;;;;4964817;28;20054;-52
2021/10/08 01:49:47;;;;;;;2.30;1.00;;;22.10;54.60;;;;;;4966114;28;20034;-55
2021/10/08 01:52:12;;;;;;;2.15;1.00;;;22.10;54.60;;;;;;4967313;28;20081;-53
2021/10/08 01:54:38;;;;;;;1.60;0.80;;;22.10;54.60;;;;;;4957162;28;20139;-58
2021/10/08 01:57:04;;;;;;;0.88;0.70;;;22.00;54.70;;;;;;4958261;28;20045;-53
2021/10/08 01:59:29;;;;;;;1.80;0.80;;;22.10;54.60;;;;;;4974093;28;20197;-50
2021/10/08 02:01:55;;;;;;;1.55;0.90;;;22.00;54.60;;;;;;4970643;28;20560;-53
2021/10/08 02:04:21;;;;;;;2.45;0.90;;;22.00;54.60;;;;;;4972166;28;20042;-55
2021/10/08 02:06:46;;;;;;;1.13;0.88;;;22.00;54.60;;;;;;4975484;28;20121;-50
2021/10/08 02:09:12;;;;;;;1.48;0.82;;;22.00;54.60;;;;;;4974504;28;20053;-52
2021/10/08 02:11:37;;;;;;;2.03;0.90;;;22.00;54.70;;;;;;4968852;28;20393;-56
2021/10/08 02:14:03;;;;;;;1.70;0.90;;;21.90;54.60;;;;;;4972998;28;20031;-48
2021/10/08 02:16:29;;;;;;;1.95;1.00;;;21.90;54.60;;;;;;4973035;28;20077;-52
2021/10/08 02:18:56;;;;;;;1.23;0.80;;;22.00;54.70;;;;;;4969427;28;20027;-50
2021/10/08 02:21:22;;;;;;;1.80;1.00;;;22.00;54.70;;;;;;4965679;28;20460;-58
2021/10/08 02:23:48;;;;;;;1.52;0.88;;;21.90;54.60;;;;;;4972241;28;20592;-53
2021/10/08 02:26:15;;;;;;;1.38;0.90;;;22.00;54.70;;;;;;4972203;28;20030;-53
2021/10/08 02:28:40;;;;;;;1.92;0.88;;;22.00;54.70;;;;;;4985743;28;20118;-49
2021/10/08 02:31:06;;;;;;;1.52;0.90;;;21.90;54.60;;;;;;4968083;28;20117;-57
2021/10/08 02:33:34;;;;;;;1.67;0.90;;;21.90;54.70;;;;;;4971103;28;20027;-49
2021/10/08 02:36:06;;;;;;;1.75;0.90;;;21.90;54.60;;;;;;4976911;28;20157;-52
2021/10/08 02:38:32;;;;;;;2.50;0.90;;;21.90;54.60;;;;;;4967941;28;20031;-52
2021/10/08 02:40:58;;;;;;;1.73;0.77;;;21.90;54.60;;;;;;4971712;28;20065;-54
2021/10/08 02:43:24;;;;;;;1.70;0.80;;;21.90;54.70;;;;;;4977546;28;20030;-54
2021/10/08 02:45:50;;;;;;;1.08;0.73;;;21.90;54.70;;;;;;4969517;28;20115;-53
2021/10/08 02:48:16;;;;;;;1.52;0.80;;;21.90;54.70;;;;;;4980817;28;20127;-53
2021/10/08 02:50:42;;;;;;;1.20;0.80;;;21.80;54.60;;;;;;4964774;28;20053;-58
2021/10/08 02:53:08;;;;;;;1.63;0.80;;;21.90;54.70;;;;;;4967384;28;20078;-54
2021/10/08 02:55:34;;;;;;;1.05;0.70;;;21.90;54.70;;;;;;4966639;28;20026;-53
2021/10/08 02:58:00;;;;;;;1.10;0.80;;;21.80;55.10;;;;;;4974637;28;20124;-51
2021/10/08 03:00:26;;;;;;;1.48;0.80;;;21.90;54.70;;;;;;4966168;28;20572;-52
2021/10/08 03:02:51;;;;;;;1.52;0.70;;;21.80;54.60;;;;;;4974714;28;20027;-52
2021/10/08 03:05:17;;;;;;;1.80;0.95;;;21.80;54.60;;;;;;4963510;28;20046;-55
2021/10/08 03:07:43;;;;;;;1.77;0.80;;;21.80;54.60;;;;;;4966679;28;20042;-57
2021/10/08 03:10:10;;;;;;;1.20;0.65;;;21.90;54.70;;;;;;4970151;28;20022;-51
2021/10/08 03:12:36;;;;;;;1.92;0.90;;;21.80;54.60;;;;;;4968514;28;20049;-53
2021/10/08 03:15:03;;;;;;;1.88;1.05;;;21.80;54.60;;;;;;4973240;28;20113;-52
2021/10/08 03:17:28;;;;;;;0.80;0.60;;;21.80;54.60;;;;;;4968026;28;20110;-53
2021/10/08 03:19:54;;;;;;;1.08;0.80;;;21.80;54.70;;;;;;4960369;28;20137;-54
2021/10/08 03:22:19;;;;;;;0.98;0.70;;;21.80;54.60;;;;;;4958863;28;20101;-53
2021/10/08 03:24:45;;;;;;;1.40;0.82;;;21.80;54.70;;;;;;4965059;28;20530;-55
2021/10/08 03:27:11;;;;;;;1.45;0.70;;;21.80;54.70;;;;;;4961995;28;20022;-51
2021/10/08 03:29:36;;;;;;;1.50;0.93;;;21.80;54.70;;;;;;4960663;28;20031;-50
2021/10/08 03:32:02;;;;;;;1.27;0.90;;;21.80;54.70;;;;;;4963842;28;20036;-54
2021/10/08 03:34:28;;;;;;;1.25;1.05;;;21.80;54.70;;;;;;4963529;28;20033;-50
2021/10/08 03:36:57;;;;;;;1.35;0.85;;;21.80;54.70;;;;;;4961551;28;20031;-53
2021/10/08 03:39:26;;;;;;;0.82;0.70;;;21.80;54.70;;;;;;4954889;28;20050;-57
2021/10/08 03:41:53;;;;;;;0.60;0.60;;;21.70;54.70;;;;;;4968542;28;20187;-55
2021/10/08 03:44:20;;;;;;;1.52;0.82;;;21.80;54.70;;;;;;4969851;28;20536;-52
2021/10/08 03:46:51;;;;;;;2.03;1.02;;;21.70;54.70;;;;;;4968403;28;20118;-52
2021/10/08 03:49:18;;;;;;;2.00;1.30;;;21.70;54.70;;;;;;4966491;28;20031;-58
2021/10/08 03:51:46;;;;;;;3.25;1.65;;;21.70;54.70;;;;;;4968044;28;20045;-53
2021/10/08 03:54:14;;;;;;;3.53;2.22;;;21.70;54.70;;;;;;4976005;28;20039;-52
2021/10/08 03:56:40;;;;;;;2.92;1.73;;;21.70;54.70;;;;;;4968534;28;20023;-53
2021/10/08 03:59:06;;;;;;;3.08;1.85;;;21.70;54.70;;;;;;4961561;28;20015;-52
2021/10/08 04:01:32;;;;;;;3.47;2.00;;;21.70;54.70;;;;;;4961314;28;20089;-50
2021/10/08 04:03:57;;;;;;;3.00;1.90;;;21.70;54.80;;;;;;4975676;28;20055;-58
2021/10/08 04:06:23;;;;;;;3.42;1.85;;;21.70;54.70;;;;;;4971165;28;20467;-51
2021/10/08 04:08:49;;;;;;;3.58;2.03;;;21.70;54.70;;;;;;4966373;28;20081;-52
2021/10/08 04:11:15;;;;;;;3.50;2.05;;;21.70;54.70;;;;;;4969116;28;20050;-54
2021/10/08 04:13:40;;;;;;;3.78;2.00;;;21.70;54.80;;;;;;4966366;28;20031;-53
2021/10/08 04:16:06;;;;;;;3.30;2.08;;;21.70;54.80;;;;;;4967285;28;20030;-49
2021/10/08 04:18:33;;;;;;;3.22;2.08;;;21.70;54.80;;;;;;4962143;28;20035;-54
2021/10/08 04:20:59;;;;;;;4.07;2.25;;;21.70;54.80;;;;;;4959197;28;20039;-59
2021/10/08 04:23:24;;;;;;;3.67;2.20;;;21.70;54.80;;;;;;4969614;28;20102;-54
2021/10/08 04:25:50;;;;;;;3.90;2.13;;;21.70;54.80;;;;;;4963597;28;20031;-53
2021/10/08 04:28:15;;;;;;;3.97;1.90;;;21.70;54.90;;;;;;4957329;28;20023;-53
2021/10/08 04:30:41;;;;;;;3.17;2.10;;;21.70;54.90;;;;;;4967504;28;20061;-55
2021/10/08 04:33:22;;;;;;;3.10;2.00;;;21.70;54.90;;;;;;4975265;28;20050;-57
2021/10/08 04:35:48;;;;;;;3.03;2.03;;;21.60;54.80;;;;;;4973357;28;20058;-58
2021/10/08 04:38:15;;;;;;;3.40;2.00;;;21.60;54.80;;;;;;4967899;28;20122;-57
2021/10/08 04:40:41;;;;;;;2.92;2.00;;;21.60;54.80;;;;;;4967956;28;20530;-55
2021/10/08 04:43:07;;;;;;;4.93;2.50;;;21.60;54.80;;;;;;4967422;28;20054;-50
2021/10/08 04:45:33;;;;;;;3.58;2.10;;;21.70;54.80;;;;;;4971009;28;20050;-54
2021/10/08 04:47:59;;;;;;;3.13;2.15;;;21.60;54.80;;;;;;4959651;28;20589;-57
2021/10/08 04:50:25;;;;;;;3.35;2.10;;;21.60;54.80;;;;;;4956076;28;20033;-52
2021/10/08 04:52:51;;;;;;;3.30;2.00;;;21.60;54.80;;;;;;4960547;28;20041;-54
2021/10/08 04:55:17;;;;;;;4.45;2.10;;;21.60;54.80;;;;;;4958768;28;20443;-55
2021/10/08 04:57:43;;;;;;;3.28;2.03;;;21.60;54.70;;;;;;4965688;28;20031;-60
2021/10/08 05:00:09;;;;;;;4.50;2.47;;;21.60;54.80;;;;;;4962035;28;20036;-54
2021/10/08 05:02:35;;;;;;;2.92;1.98;;;21.60;54.80;;;;;;4962517;28;20093;-57
2021/10/08 05:05:02;;;;;;;3.20;2.00;;;21.60;54.80;;;;;;4966095;28;20113;-58
2021/10/08 05:07:27;;;;;;;3.78;2.00;;;21.60;54.80;;;;;;4972833;28;20027;-53
2021/10/08 05:09:53;;;;;;;3.15;2.00;;;21.60;54.80;;;;;;4974295;28;20030;-57
2021/10/08 05:12:18;;;;;;;2.90;1.92;;;21.60;54.80;;;;;;4963962;28;20023;-51
2021/10/08 05:14:44;;;;;;;3.47;2.10;;;21.60;54.80;;;;;;4975829;28;20041;-51
2021/10/08 05:17:10;;;;;;;3.22;1.90;;;21.60;54.80;;;;;;4964363;28;20043;-59
2021/10/08 05:19:35;;;;;;;3.42;2.05;;;21.60;54.80;;;;;;4968710;28;20043;-54
2021/10/08 05:22:01;;;;;;;3.40;1.92;;;21.60;54.80;;;;;;4961905;28;20050;-58
2021/10/08 05:24:27;;;;;;;3.05;1.80;;;21.60;55.10;;;;;;4964807;28;20046;-52
2021/10/08 05:26:53;;;;;;;4.00;1.90;;;21.60;55.00;;;;;;4958243;28;20111;-56
2021/10/08 05:29:18;;;;;;;3.33;2.22;;;21.80;54.90;;;;;;4970793;28;20038;-56
2021/10/08 05:31:44;;;;;;;2.72;1.90;;;21.90;54.60;;;;;;4967937;28;20042;-58
2021/10/08 05:34:11;;;;;;;4.22;2.25;;;22.00;54.30;;;;;;4977809;28;20018;-56
2021/10/08 05:36:37;;;;;;;2.92;1.70;;;22.10;54.00;;;;;;4977057;28;20031;-53
2021/10/08 05:39:04;;;;;;;2.78;1.80;;;22.20;53.90;;;;;;4986161;28;20033;-53
2021/10/08 05:41:29;;;;;;;3.35;1.85;;;22.30;53.80;;;;;;4976598;28;20035;-52
2021/10/08 05:43:55;;;;;;;3.60;2.13;;;22.40;53.60;;;;;;4973316;28;20034;-51
2021/10/08 05:46:21;;;;;;;4.63;2.17;;;22.40;53.30;;;;;;4976782;28;20434;-54
2021/10/08 05:48:46;;;;;;;3.67;2.05;;;22.60;53.20;;;;;;4979072;28;20069;-53
2021/10/08 05:51:12;;;;;;;3.67;2.15;;;22.70;53.00;;;;;;4967842;28;20031;-53
2021/10/08 05:53:37;;;;;;;3.58;2.00;;;22.80;52.80;;;;;;4973950;28;20040;-59
2021/10/08 05:56:03;;;;;;;2.92;1.85;;;22.80;52.60;;;;;;4972025;28;20039;-57
2021/10/08 05:58:29;;;;;;;3.30;2.03;;;22.90;52.50;;;;;;4972982;28;20030;-53
2021/10/08 06:00:54;;;;;;;4.28;2.00;;;22.80;52.70;;;;;;4958716;28;20070;-50
2021/10/08 06:03:20;;;;;;;3.72;2.30;;;23.00;52.50;;;;;;4977832;28;20047;-58
2021/10/08 06:05:46;;;;;;;3.55;1.90;;;23.20;52.10;;;;;;4968383;28;20115;-55
2021/10/08 06:08:12;;;;;;;3.13;1.80;;;23.40;51.70;;;;;;4980180;28;20052;-52
2021/10/08 06:10:38;;;;;;;3.22;1.90;;;23.60;51.30;;;;;;4965668;28;20042;-53
2021/10/08 06:13:04;;;;;;;3.85;2.05;;;23.70;51.10;;;;;;4974631;28;20029;-53
2021/10/08 06:15:30;;;;;;;3.42;1.80;;;23.80;51.00;;;;;;4961029;28;20101;-53
2021/10/08 06:17:56;;;;;;;3.00;1.80;;;23.90;50.60;;;;;;4973512;28;20158;-55
2021/10/08 06:20:22;;;;;;;3.30;2.00;;;24.00;50.50;;;;;;4966296;28;20169;-54
2021/10/08 06:22:49;;;;;;;3.95;1.98;;;24.10;50.30;;;;;;4970274;28;20062;-53
2021/10/08 06:25:14;;;;;;;2.85;1.77;;;24.10;50.20;;;;;;4969213;28;20032;-53
2021/10/08 06:27:40;;;;;;;4.78;1.83;;;24.20;50.00;;;;;;4960500;28;20035;-55
2021/10/08 06:30:08;;;;;;;3.92;1.88;;;24.20;49.80;;;;;;4982583;28;20040;-53
2021/10/08 06:32:34;;;;;;;3.08;1.90;;;24.10;49.80;;;;;;4975910;28;20752;-49
2021/10/08 06:35:00;;;;;;;2.50;1.58;;;24.00;49.90;;;;;;4962919;28;20176;-54
2021/10/08 06:37:26;;;;;;;2.33;1.45;;;23.90;50.20;;;;;;4960625;28;20027;-52
2021/10/08 06:39:51;;;;;;;2.53;1.60;;;23.80;50.40;;;;;;4977655;28;20035;-54
2021/10/08 06:42:23;;;;;;;2.97;1.63;;;23.80;50.40;;;;;;4980631;28;20027;-55
2021/10/08 06:44:50;;;;;;;2.55;1.50;;;23.70;50.50;;;;;;4969080;28;20063;-54
2021/10/08 06:47:15;;;;;;;2.53;1.45;;;23.70;50.80;;;;;;4969678;28;20077;-55
2021/10/08 06:49:41;;;;;;;2.60;1.70;;;23.70;50.80;;;;;;4970153;28;20388;-55
2021/10/08 06:52:07;;;;;;;2.47;1.67;;;23.70;50.90;;;;;;4954685;28;20030;-54
2021/10/08 06:54:32;;;;;;;3.38;1.70;;;23.70;50.80;;;;;;4968734;28;20454;-55
2021/10/08 06:56:58;;;;;;;2.63;1.50;;;23.70;50.80;;;;;;4971183;28;20085;-54
2021/10/08 06:59:23;;;;;;;2.47;1.50;;;23.70;50.90;;;;;;4981971;28;20124;-55
2021/10/08 07:01:51;;;;;;;3.13;1.80;;;23.70;50.90;;;;;;4968067;28;20069;-55
2021/10/08 07:04:16;;;;;;;2.25;1.48;;;23.70;50.90;;;;;;4964151;28;20141;-55
2021/10/08 07:06:42;;;;;;;2.58;1.55;;;23.60;50.90;;;;;;4965574;28;20027;-58
2021/10/08 07:09:08;;;;;;;2.65;1.73;;;23.70;50.90;;;;;;4967017;28;20122;-57
2021/10/08 07:11:33;;;;;;;2.58;1.70;;;23.60;51.00;;;;;;4960574;28;20041;-58
2021/10/08 07:13:59;;;;;;;2.05;1.50;;;23.60;51.00;;;;;;4968630;28;20039;-54
2021/10/08 07:16:25;;;;;;;2.72;1.52;;;23.60;51.10;;;;;;4981000;28;20085;-55
2021/10/08 07:18:56;;;;;;;2.78;1.70;;;23.60;50.90;;;;;;4966448;28;20039;-52
2021/10/08 07:21:23;;;;;;;2.50;1.65;;;23.60;51.00;;;;;;4979927;28;20765;-56
2021/10/08 07:23:49;;;;;;;2.40;1.40;;;23.60;51.00;;;;;;4982519;28;20470;-55
2021/10/08 07:26:16;;;;;;;2.50;1.60;;;23.60;51.10;;;;;;4967963;28;20082;-56
2021/10/08 07:28:43;;;;;;;2.35;1.50;;;23.60;51.10;;;;;;4976802;28;20053;-55
2021/10/08 07:31:09;;;;;;;2.78;1.60;;;23.60;50.80;;;;;;4956495;28;20131;-47
2021/10/08 07:33:36;;;;;;;2.80;1.80;;;23.60;50.90;;;;;;4968502;28;20027;-55
2021/10/08 07:36:03;;;;;;;3.17;1.60;;;23.60;51.00;;;;;;4966900;28;20070;-54
2021/10/08 07:38:28;;;;;;;2.88;1.60;;;23.60;51.00;;;;;;4958063;28;20070;-51
2021/10/08 07:40:54;;;;;;;3.00;1.55;;;23.60;51.00;;;;;;4972004;28;20062;-50
2021/10/08 07:43:20;;;;;;;2.15;1.40;;;23.60;50.90;;;;;;4972668;28;20035;-59
2021/10/08 07:45:45;;;;;;;2.78;1.65;;;23.60;51.00;;;;;;4968493;28;20031;-51
2021/10/08 07:48:11;;;;;;;3.30;1.88;;;23.60;51.10;;;;;;4972748;28;20359;-52
2021/10/08 07:50:37;;;;;;;2.72;1.52;;;23.60;51.10;;;;;;4964302;28;20085;-51
2021/10/08 07:53:03;;;;;;;3.25;1.73;;;23.60;51.10;;;;;;4962316;28;20034;-58
2021/10/08 07:55:29;;;;;;;2.40;1.55;;;23.60;51.10;;;;;;4964119;28;20439;-58
2021/10/08 07:57:54;;;;;;;2.40;1.40;;;23.60;51.10;;;;;;4968095;28;20033;-58
2021/10/08 08:00:21;;;;;;;2.22;1.50;;;23.60;51.10;;;;;;4956558;28;20034;-58
2021/10/08 08:02:47;;;;;;;1.80;1.20;;;23.60;51.20;;;;;;4967411;28;20086;-54
2021/10/08 08:05:12;;;;;;;2.72;1.50;;;23.60;51.20;;;;;;4956505;28;20880;-54
2021/10/08 08:07:38;;;;;;;2.25;1.40;;;23.60;51.20;;;;;;4970928;28;20061;-52
2021/10/08 08:10:06;;;;;;;3.08;1.50;;;23.60;51.10;;;;;;4972878;28;20102;-54
2021/10/08 08:12:32;;;;;;;2.33;1.50;;;23.60;51.10;;;;;;4968472;28;20027;-51
2021/10/08 08:14:57;;;;;;;2.50;1.80;;;23.60;51.50;;;;;;4963048;28;20337;-54
2021/10/08 08:17:23;;;;;;;3.08;1.70;;;23.60;51.00;;;;;;4961735;28;20030;-52
2021/10/08 08:19:48;;;;;;;2.45;1.50;;;23.60;51.20;;;;;;4961880;28;20112;-51
2021/10/08 08:22:15;;;;;;;2.17;1.40;;;23.60;51.20;;;;;;4962527;28;20038;-54
2021/10/08 08:24:40;;;;;;;2.70;1.58;;;23.60;51.40;;;;;;4977859;28;20042;-58
2021/10/08 08:27:06;;;;;;;2.28;1.58;;;23.60;51.10;;;;;;4966582;28;20077;-54
2021/10/08 08:29:32;;;;;;;3.58;1.52;;;23.60;51.40;;;;;;4961568;28;20483;-52
2021/10/08 08:31:58;;;;;;;2.30;1.40;;;23.60;51.20;;;;;;4962901;28;20074;-53
2021/10/08 08:34:25;;;;;;;2.00;1.20;;;23.60;51.30;;;;;;4964158;28;20031;-53
2021/10/08 08:36:50;;;;;;;4.28;1.70;;;23.60;51.30;;;;;;4963564;28;20038;-58
2021/10/08 08:39:18;;;;;;;4.15;1.85;;;23.60;51.30;;;;;;4962392;28;20038;-48
2021/10/08 08:41:44;;;;;;;2.58;1.45;;;23.60;51.20;;;;;;4955649;28;20034;-52
2021/10/08 08:44:10;;;;;;;3.92;2.00;;;23.50;51.10;;;;;;4962120;28;20019;-53
2021/10/08 08:46:35;;;;;;;2.92;1.70;;;23.60;51.20;;;;;;4969124;28;20046;-54
2021/10/08 08:49:01;;;;;;;2.67;1.55;;;23.50;51.20;;;;;;4968429;28;20046;-50
2021/10/08 08:51:28;;;;;;;2.25;1.50;;;23.50;51.20;;;;;;4965691;28;20027;-52
2021/10/08 08:53:54;;;;;;;2.67;1.25;;;23.50;51.50;;;;;;4956787;28;20427;-54
2021/10/08 08:56:20;;;;;;;4.00;1.60;;;23.50;51.50;;;;;;4955021;28;20031;-51
2021/10/08 08:58:46;;;;;;;2.65;1.52;;;23.50;51.40;;;;;;4953790;28;20031;-51
2021/10/08 09:01:12;;;;;;;3.40;1.70;;;23.50;51.40;;;;;;4957581;28;20079;-49
2021/10/08 09:03:37;;;;;;;2.65;1.50;;;23.60;51.20;;;;;;4960177;28;20054;-53
2021/10/08 09:06:03;;;;;;;2.75;1.60;;;23.60;51.20;;;;;;4964456;28;20086;-58
2021/10/08 09:08:34;;;;;;;2.50;1.40;;;23.60;51.20;;;;;;4960138;28;20042;-55
2021/10/08 09:11:02;;;;;;;2.40;1.50;;;23.50;51.10;;;;;;4965113;28;20023;-55
2021/10/08 09:13:28;;;;;;;2.33;1.50;;;23.60;51.20;;;;;;4962204;28;20479;-52
2021/10/08 09:15:59;;;;;;;3.33;1.65;;;23.50;51.40;;;;;;4963551;28;20034;-56
2021/10/08 09:18:29;;;;;;;2.28;1.45;;;23.60;51.30;;;;;;4971492;28;20050;-56
2021/10/08 09:21:12;;;;;;;2.60;1.30;;;23.60;51.30;;;;;;4965296;28;20142;-55
2021/10/08 09:23:50;;;;;;;2.55;1.30;;;23.60;51.60;;;;;;4967972;28;20126;-51
2021/10/08 09:26:21;;;;;;;2.75;1.40;;;23.60;51.50;;;;;;4958939;28;20022;-54
2021/10/08 09:28:53;;;;;;;2.60;1.50;;;23.50;51.70;;;;;;4970601;28;20027;-50
2021/10/08 09:31:21;;;;;;;2.20;1.38;;;23.60;51.60;;;;;;4970835;28;20042;-54
2021/10/08 09:33:48;;;;;;;2.67;1.40;;;23.60;51.70;;;;;;4968817;28;20051;-56
2021/10/08 09:36:16;;;;;;;2.13;1.40;;;23.60;51.50;;;;;;4958585;28;20031;-51
2021/10/08 09:38:42;;;;;;;2.17;1.57;;;23.60;51.60;;;;;;4969222;28;20055;-58
2021/10/08 09:41:08;;;;;;;3.22;1.70;;;23.50;51.40;;;;;;4971266;28;20767;-57
2021/10/08 09:43:34;;;;;;;2.67;1.58;;;23.60;51.40;;;;;;4963994;28;20034;-54
2021/10/08 09:46:04;;;;;;;3.55;1.88;;;23.60;51.40;;;;;;4962578;28;20153;-57
2021/10/08 09:48:43;;;;;;;2.25;1.45;;;23.60;51.40;;;;;;4966861;28;20027;-55
2021/10/08 09:51:16;;;;;;;2.40;1.50;;;23.60;51.80;;;;;;4957761;28;20564;-56
2021/10/08 09:53:48;;;;;;;2.90;1.60;;;23.60;51.40;;;;;;4966564;28;20129;-54
2021/10/08 09:56:33;;;;;;;2.88;1.63;;;23.60;51.50;;;;;;4972525;28;20070;-58
2021/10/08 09:58:59;;;;;;;2.65;1.63;;;23.60;51.90;;;;;;4959751;28;20041;-54
2021/10/08 10:01:27;;;;;;;2.25;1.33;;;23.60;51.50;;;;;;4966447;28;20041;-57
2021/10/08 10:03:54;;;;;;;2.50;1.40;;;23.60;51.60;;;;;;4963237;28;20035;-52
2021/10/08 10:06:21;;;;;;;2.10;1.30;;;23.60;51.70;;;;;;4956179;28;20071;-52
2021/10/08 10:08:49;;;;;;;2.55;1.30;;;23.60;51.70;;;;;;4959394;28;20069;-52
2021/10/08 10:11:20;;;;;;;3.15;1.60;;;23.60;51.70;;;;;;4965515;28;20027;-55
2021/10/08 10:13:48;;;;;;;2.47;1.40;;;23.60;51.70;;;;;;4969815;28;20086;-55
2021/10/08 10:16:16;;;;;;;2.80;1.58;;;23.60;51.60;;;;;;4962345;28;20027;-53
2021/10/08 10:18:48;;;;;;;2.85;1.10;;;23.60;51.50;;;;;;4972663;28;20035;-55
2021/10/08 10:21:21;;;;;;;2.35;1.40;;;23.60;51.70;;;;;;4969783;28;20463;-54
2021/10/08 10:23:54;;;;;;;2.08;1.30;;;23.60;51.50;;;;;;4967984;28;20041;-46
2021/10/08 10:26:21;;;;;;;2.20;1.35;;;23.60;51.50;;;;;;4964140;28;20382;-54
2021/10/08 10:28:47;;;;;;;2.47;1.45;;;23.60;51.50;;;;;;4973783;28;20025;-53
2021/10/08 10:31:14;;;;;;;2.83;1.70;;;23.60;51.50;;;;;;4964117;28;20039;-56
2021/10/08 10:33:40;;;;;;;2.20;1.40;;;23.60;52.00;;;;;;4967110;28;20027;-57
2021/10/08 10:36:27;;;;;;;2.50;1.60;;;23.60;51.50;;;;;;4964221;28;20411;-56
2021/10/08 10:39:12;;;;;;;1.90;1.30;;;23.60;51.70;;;;;;4973824;28;20118;-59
2021/10/08 10:41:39;;;;;;;2.10;1.40;;;23.60;51.50;;;;;;4968935;28;20483;-59
2021/10/08 10:44:38;;;;;;;2.33;1.30;;;23.60;52.30;;;;;;4965286;28;20525;-54
2021/10/08 10:47:22;;;;;;;1.75;1.20;;;23.60;51.60;;;;;;4981095;28;20121;-55
2021/10/08 10:50:18;;;;;;;2.25;1.45;;;23.60;51.70;;;;;;4970249;28;20035;-54
2021/10/08 10:52:56;;;;;;;3.28;1.60;;;23.60;51.60;;;;;;4978995;28;20041;-58
2021/10/08 10:55:23;;;;;;;2.03;1.42;;;23.60;51.60;;;;;;4977978;28;20030;-53
2021/10/08 10:57:58;;;;;;;2.35;1.50;;;23.60;51.50;;;;;;4988316;28;20035;-51
2021/10/08 11:00:27;;;;;;;2.10;1.45;;;23.60;51.50;;;;;;4963225;28;20426;-52
2021/10/08 11:03:00;;;;;;;2.33;1.40;;;23.60;51.50;;;;;;4972678;28;20475;-58
2021/10/08 11:05:27;;;;;;;2.45;1.50;;;23.50;51.50;;;;;;4965340;28;20115;-59
2021/10/08 11:08:10;;;;;;;2.65;1.42;;;23.50;51.50;;;;;;4968450;28;20109;-52
2021/10/08 11:10:38;;;;;;;2.00;1.33;;;23.50;51.50;;;;;;4963335;28;20122;-57
2021/10/08 11:13:19;;;;;;;3.50;1.52;;;23.50;51.30;;;;;;4974215;28;20041;-55
2021/10/08 11:16:06;;;;;;;3.60;1.80;;;23.40;51.10;;;;;;4983492;28;20034;-53
2021/10/08 11:18:45;;;;;;;2.53;1.50;;;23.40;51.10;;;;;;4963946;28;20110;-57
2021/10/08 11:21:37;;;;;;;2.10;1.33;;;23.40;51.10;;;;;;4963302;28;20042;-60
2021/10/08 11:24:20;;;;;;;1.92;1.30;;;23.40;51.10;;;;;;4958317;28;20105;-57
2021/10/08 11:26:55;;;;;;;2.80;1.55;;;23.40;51.20;;;;;;4963878;28;20051;-57
2021/10/08 11:29:21;;;;;;;2.40;1.50;;;23.40;51.20;;;;;;4960338;28;20018;-59
2021/10/08 11:32:18;;;;;;;2.67;1.58;;;23.30;51.20;;;;;;4975698;28;20431;-59
2021/10/08 11:34:54;;;;;;;2.65;1.50;;;23.30;51.20;;;;;;4975166;28;20081;-53
2021/10/08 11:37:21;;;;;;;2.70;1.55;;;23.30;51.30;;;;;;4963788;28;20104;-55
2021/10/08 11:39:47;;;;;;;2.65;1.70;;;23.30;51.60;;;;;;4964705;28;20110;-59
2021/10/08 11:42:18;;;;;;;2.17;1.40;;;23.30;51.50;;;;;;4964794;28;20034;-58
2021/10/08 11:45:03;;;;;;;2.78;1.80;;;23.30;51.50;;;;;;4973913;28;20719;-53
2021/10/08 11:47:34;;;;;;;4.00;1.60;;;23.30;51.60;;;;;;4967699;28;20029;-53
2021/10/08 11:52:55;;;;;;;3.22;1.52;;;23.30;51.50;;;;;;4974069;28;20038;-55
2021/10/08 11:55:25;;;;;;;2.47;1.50;;;23.30;51.60;;;;;;4984404;28;20062;-61
2021/10/08 11:58:04;;;;;;;2.88;1.60;;;23.30;51.60;;;;;;4976130;28;20023;-57
2021/10/08 12:00:48;;;;;;;2.60;1.30;;;23.30;51.70;;;;;;4958461;28;20110;-57
2021/10/08 12:03:18;;;;;;;2.72;1.58;;;23.30;51.70;;;;;;4961967;28;20046;-53
2021/10/08 12:05:53;;;;;;;2.78;1.50;;;23.30;51.70;;;;;;4967086;28;20034;-57
2021/10/08 12:08:40;;;;;;;2.70;1.50;;;23.30;51.90;;;;;;4967850;28;20509;-55
2021/10/08 12:11:08;;;;;;;2.50;1.60;;;23.30;51.80;;;;;;4982806;28;20116;-53
2021/10/08 12:13:37;;;;;;;2.88;1.77;;;23.30;51.90;;;;;;4969893;28;20028;-54
2021/10/08 12:16:03;;;;;;;2.63;1.65;;;23.30;51.90;;;;;;4964599;28;20412;-60
2021/10/08 12:18:29;;;;;;;2.63;1.52;;;23.30;52.00;;;;;;4971729;28;20116;-57
2021/10/08 12:21:15;;;;;;;3.25;1.40;;;23.20;51.90;;;;;;4973995;28;20054;-52
2021/10/08 12:23:42;;;;;;;2.10;1.42;;;23.30;52.00;;;;;;4968253;28;20501;-56
2021/10/08 12:26:11;;;;;;;2.90;1.60;;;23.20;52.00;;;;;;4969315;28;20062;-52
2021/10/08 12:28:37;;;;;;;2.00;1.35;;;23.20;52.00;;;;;;4980968;28;20451;-52
2021/10/08 12:31:05;;;;;;;1.95;1.25;;;23.20;52.00;;;;;;4986188;28;20030;-61
2021/10/08 12:33:43;;;;;;;2.30;1.30;;;23.20;52.00;;;;;;4965897;28;20031;-53
2021/10/08 12:36:19;;;;;;;2.08;1.48;;;23.10;52.00;;;;;;4969415;28;20456;-53
2021/10/08 12:39:09;;;;;;;2.58;1.60;;;23.20;52.10;;;;;;4978533;28;20042;-56
2021/10/08 12:41:50;;;;;;;3.80;1.50;;;23.10;52.00;;;;;;4976467;28;20026;-58
2021/10/08 12:44:29;;;;;;;2.13;1.38;;;23.10;52.10;;;;;;4970596;28;20150;-53
2021/10/08 12:47:11;;;;;;;2.20;1.35;;;23.10;52.10;;;;;;4985431;28;20646;-56
2021/10/08 12:49:54;;;;;;;2.05;1.20;;;23.10;52.20;;;;;;4978769;28;20046;-54
2021/10/08 12:52:32;;;;;;;2.28;1.50;;;23.10;52.20;;;;;;4960156;28;20031;-59
2021/10/08 12:55:08;;;;;;;2.55;1.42;;;23.00;52.10;;;;;;4971007;28;20034;-57